Time;durP1;ratioP1;P1;durP2;ratioP2;P2;SDS_P1;SDS_P2;PMS_P1;PMS_P2;Temp;Humidity;BMP_temperature;BMP_pressure;BME280_temperature;BME280_humidity;BME280_pressure;Samples;Min_cycle;Max_cycle;Signal;HPM_P1;HPM_P2
2021/09/02 00:01:29;;;;;;;3.05;1.92;;;;;;;22.94;49.08;100941.16;1757863;80;21023;-49
2021/09/02 00:03:56;;;;;;;1.90;1.80;;;;;;;22.99;48.97;100940.38;1761627;80;21046;-48
2021/09/02 00:06:22;;;;;;;1.90;1.80;;;;;;;22.97;49.04;100938.30;1766101;80;21482;-48
2021/09/02 00:08:49;;;;;;;4.30;2.08;;;;;;;22.95;49.12;100938.42;1750913;80;21022;-48
2021/09/02 00:11:15;;;;;;;1.98;1.80;;;;;;;22.94;49.11;100941.16;1769866;80;20979;-48
2021/09/02 00:13:44;;;;;;;2.27;2.08;;;;;;;22.91;49.18;100943.58;1773691;80;21541;-48
2021/09/02 00:16:12;;;;;;;2.75;2.05;;;;;;;22.88;49.35;100943.77;1776173;80;21046;-48
2021/09/02 00:18:38;;;;;;;2.58;2.15;;;;;;;22.86;49.37;100950.98;1753267;80;21291;-48
2021/09/02 00:21:07;;;;;;;2.02;1.80;;;;;;;22.81;49.49;100944.31;1767808;80;21498;-48
2021/09/02 00:23:33;;;;;;;4.05;2.55;;;;;;;22.74;49.65;100949.66;1768487;80;21014;-49
2021/09/02 00:26:00;;;;;;;1.90;1.70;;;;;;;22.72;49.82;100952.89;1776328;80;21023;-50
2021/09/02 00:28:26;;;;;;;3.20;2.12;;;;;;;22.73;49.85;100949.30;1774271;81;21019;-48
2021/09/02 00:30:53;;;;;;;2.92;1.90;;;;;;;22.71;49.90;100945.41;1773936;80;21085;-48
2021/09/02 00:33:19;;;;;;;2.25;2.02;;;;;;;22.71;49.89;100957.34;1761859;80;21168;-48
2021/09/02 00:35:46;;;;;;;2.25;2.15;;;;;;;22.72;49.89;100954.22;1780237;80;20994;-48
2021/09/02 00:38:13;;;;;;;2.20;2.00;;;;;;;22.71;49.98;100952.54;1756306;80;20982;-48
2021/09/02 00:40:40;;;;;;;2.70;2.22;;;;;;;22.71;49.97;100961.32;1759845;80;20959;-48
2021/09/02 00:43:06;;;;;;;2.85;2.15;;;;;;;22.68;50.09;100960.69;1762657;80;21601;-48
2021/09/02 00:45:33;;;;;;;2.20;1.95;;;;;;;22.66;50.24;100956.83;1756309;80;21105;-47
2021/09/02 00:48:02;;;;;;;3.80;2.58;;;;;;;22.65;50.33;100957.30;1757127;80;21471;-47
2021/09/02 00:50:32;;;;;;;2.62;2.42;;;;;;;22.61;50.51;100958.46;1763670;80;21041;-47
2021/09/02 00:52:59;;;;;;;3.58;2.30;;;;;;;22.64;50.42;100952.96;1766367;80;21053;-50
2021/09/02 00:55:27;;;;;;;3.62;2.30;;;;;;;22.63;50.54;100955.22;1771634;80;21003;-50
2021/09/02 00:57:53;;;;;;;4.60;2.50;;;;;;;22.63;50.48;100957.88;1759482;80;21011;-48
2021/09/02 01:00:20;;;;;;;2.90;2.60;;;;;;;22.64;50.54;100960.06;1723033;81;20995;-48
2021/09/02 01:02:47;;;;;;;3.20;2.40;;;;;;;22.62;50.53;100958.84;1697900;83;21091;-48
2021/09/02 01:05:17;;;;;;;2.45;2.12;;;;;;;22.59;50.52;100959.05;1756903;80;21506;-48
2021/09/02 01:07:44;;;;;;;3.75;2.27;;;;;;;22.56;50.68;100961.89;1763962;80;21494;-48
2021/09/02 01:10:11;;;;;;;2.75;2.45;;;;;;;22.55;50.83;100957.52;1761297;80;21015;-48
2021/09/02 01:12:46;;;;;;;3.10;2.37;;;;;;;22.54;50.83;100965.13;1758424;80;21025;-48
2021/09/02 01:15:24;;;;;;;2.60;2.35;;;;;;;22.53;50.85;100962.08;1763523;80;21030;-48
2021/09/02 01:17:56;;;;;;;3.25;2.95;;;;;;;22.53;50.94;100962.08;1755524;80;21529;-48
2021/09/02 01:20:26;;;;;;;2.80;2.52;;;;;;;22.52;51.01;100957.72;1769505;80;21485;-47
2021/09/02 01:22:57;;;;;;;2.50;2.30;;;;;;;22.50;51.07;100963.59;1753039;80;21010;-48
2021/09/02 01:25:27;;;;;;;3.50;2.85;;;;;;;22.49;51.15;100963.24;1763196;80;21002;-48
2021/09/02 01:28:05;;;;;;;2.62;2.42;;;;;;;22.47;51.19;100965.15;1761871;80;21053;-48
2021/09/02 01:30:33;;;;;;;2.87;2.55;;;;;;;22.45;51.25;100969.70;1715313;83;21113;-48
2021/09/02 01:32:59;;;;;;;2.67;2.47;;;;;;;22.41;51.32;100969.55;1717865;83;21075;-48
2021/09/02 01:35:31;;;;;;;3.12;2.83;;;;;;;22.39;51.52;100964.82;1717696;83;21038;-48
2021/09/02 01:37:57;;;;;;;2.83;2.50;;;;;;;22.39;51.58;100964.82;1717975;83;21058;-48
2021/09/02 01:40:31;;;;;;;3.35;2.50;;;;;;;22.36;51.69;100970.31;1717781;83;20986;-48
2021/09/02 01:42:58;;;;;;;3.87;2.60;;;;;;;22.34;51.82;100968.74;1703272;84;21018;-48
2021/09/02 01:45:25;;;;;;;3.27;2.70;;;;;;;22.32;51.85;100969.28;1703535;84;21056;-47
2021/09/02 01:47:51;;;;;;;2.98;2.67;;;;;;;22.32;51.89;100970.61;1703675;84;21549;-48
2021/09/02 01:50:21;;;;;;;2.92;2.70;;;;;;;22.31;51.98;100965.81;1696253;84;21021;-48
2021/09/02 01:52:49;;;;;;;2.52;2.33;;;;;;;22.31;52.07;100965.81;1675739;86;21038;-47
2021/09/02 01:55:16;;;;;;;3.47;2.55;;;;;;;22.30;52.09;100965.42;1675784;86;21061;-49
2021/09/02 01:57:43;;;;;;;2.98;2.52;;;;;;;22.28;52.13;100964.67;1675623;86;21078;-48
2021/09/02 02:00:12;;;;;;;2.87;2.67;;;;;;;22.30;52.21;100962.77;1675904;86;21553;-48
2021/09/02 02:02:39;;;;;;;2.70;2.50;;;;;;;22.32;52.22;100967.50;1675907;86;21581;-49
2021/09/02 02:05:07;;;;;;;3.30;3.00;;;;;;;22.34;52.19;100961.61;1675881;86;21041;-48
2021/09/02 02:07:35;;;;;;;2.55;2.30;;;;;;;22.38;52.20;100960.95;1675765;86;21556;-49
2021/09/02 02:10:04;;;;;;;6.12;2.85;;;;;;;22.40;52.12;100966.50;1675598;86;21061;-48
2021/09/02 02:12:31;;;;;;;2.90;2.70;;;;;;;22.43;52.05;100963.66;1675880;86;21112;-48
2021/09/02 02:14:58;;;;;;;2.83;2.35;;;;;;;22.44;52.01;100963.19;1675631;86;21117;-48
2021/09/02 02:17:24;;;;;;;3.37;2.60;;;;;;;22.44;52.07;100964.02;1675980;86;21565;-48
2021/09/02 02:19:53;;;;;;;2.72;2.52;;;;;;;22.46;52.01;100960.78;1684372;83;21105;-48
2021/09/02 02:22:19;;;;;;;2.80;2.60;;;;;;;22.46;52.04;100954.66;1707538;83;21061;-47
2021/09/02 02:24:46;;;;;;;2.98;2.60;;;;;;;22.48;52.00;100956.22;1708195;83;21058;-48
2021/09/02 02:27:12;;;;;;;3.12;2.92;;;;;;;22.50;51.80;100955.64;1706279;83;21566;-48
2021/09/02 02:29:39;;;;;;;2.70;2.50;;;;;;;22.53;51.97;100957.24;1709901;83;21014;-48
2021/09/02 02:32:07;;;;;;;3.27;3.08;;;;;;;22.54;51.98;100952.33;1705552;83;20995;-49
2021/09/02 02:34:34;;;;;;;3.12;2.85;;;;;;;22.56;52.00;100951.75;1703501;83;21144;-48
2021/09/02 02:37:00;;;;;;;2.67;2.47;;;;;;;22.59;51.97;100955.06;1706618;83;21523;-47
2021/09/02 02:39:27;;;;;;;2.92;2.60;;;;;;;22.61;51.96;100955.81;1713023;82;21082;-48
2021/09/02 02:41:54;;;;;;;2.83;2.58;;;;;;;22.64;51.90;100956.94;1701932;83;21051;-48
2021/09/02 02:44:21;;;;;;;3.87;3.10;;;;;;;22.68;51.96;100956.71;1749503;82;21066;-47
2021/09/02 02:46:47;;;;;;;4.08;2.95;;;;;;;22.70;51.94;100962.77;1745968;82;21061;-48
2021/09/02 02:49:14;;;;;;;2.83;2.62;;;;;;;22.71;51.94;100967.12;1745858;80;21006;-47
2021/09/02 02:51:40;;;;;;;3.35;2.95;;;;;;;22.70;51.97;100965.41;1762216;80;20998;-48
2021/09/02 02:54:08;;;;;;;3.05;2.75;;;;;;;22.69;52.03;100961.08;1752260;80;21030;-48
2021/09/02 02:56:34;;;;;;;2.98;2.77;;;;;;;22.65;52.19;100958.63;1762148;80;21502;-48
2021/09/02 02:59:01;;;;;;;2.90;2.70;;;;;;;22.65;52.29;100961.27;1757913;80;21069;-48
2021/09/02 03:01:29;;;;;;;3.10;2.85;;;;;;;22.67;52.36;100968.30;1769042;80;21078;-48
2021/09/02 03:03:55;;;;;;;2.87;2.67;;;;;;;22.65;52.45;100969.23;1770942;80;21518;-48
2021/09/02 03:06:22;;;;;;;4.90;3.10;;;;;;;22.68;52.46;100971.30;1764819;80;21073;-48
2021/09/02 03:08:48;;;;;;;3.33;3.02;;;;;;;22.70;52.50;100965.41;1768299;80;21069;-48
2021/09/02 03:11:16;;;;;;;3.00;2.80;;;;;;;22.71;52.46;100967.12;1761910;80;21498;-48
2021/09/02 03:13:44;;;;;;;3.70;3.40;;;;;;;22.74;52.52;100964.25;1766004;80;21112;-48
2021/09/02 03:16:11;;;;;;;3.77;3.00;;;;;;;22.75;52.41;100964.13;1762790;80;21002;-48
2021/09/02 03:18:39;;;;;;;3.22;3.00;;;;;;;22.78;52.40;100969.72;1761298;80;22017;-48
2021/09/02 03:21:05;;;;;;;5.55;3.45;;;;;;;22.78;52.36;100967.92;1771716;80;21051;-48
2021/09/02 03:23:32;;;;;;;7.47;3.80;;;;;;;22.80;52.40;100969.13;1758316;80;21526;-48
2021/09/02 03:25:58;;;;;;;3.52;3.22;;;;;;;22.80;52.32;100964.68;1766894;80;20998;-48
2021/09/02 03:28:25;;;;;;;3.17;2.98;;;;;;;22.82;52.33;100967.22;1772711;80;21516;-48
2021/09/02 03:30:51;;;;;;;4.28;2.87;;;;;;;22.84;52.45;100970.62;1752658;80;21027;-49
2021/09/02 03:33:18;;;;;;;3.70;3.40;;;;;;;22.83;52.56;100976.89;1763904;80;21066;-49
2021/09/02 03:35:45;;;;;;;6.65;3.37;;;;;;;22.83;52.56;100972.91;1771346;80;21574;-48
2021/09/02 03:38:13;;;;;;;3.80;3.50;;;;;;;22.84;52.65;100962.19;1774388;80;21065;-47
2021/09/02 03:40:39;;;;;;;3.70;3.40;;;;;;;22.87;52.64;100979.70;1762973;80;21367;-47
2021/09/02 03:43:06;;;;;;;3.87;3.58;;;;;;;22.87;52.64;100977.05;1749924;80;21029;-51
2021/09/02 03:45:33;;;;;;;10.40;3.87;;;;;;;22.88;52.71;100988.02;1759395;80;21027;-48
2021/09/02 03:48:00;;;;;;;5.03;3.60;;;;;;;22.89;52.77;100983.10;1768320;80;21034;-50
2021/09/02 03:50:27;;;;;;;4.15;3.50;;;;;;;22.89;52.80;100983.10;1769859;80;21022;-48
2021/09/02 03:52:53;;;;;;;5.00;3.77;;;;;;;22.90;52.86;100988.77;1767925;80;21133;-49
2021/09/02 03:55:20;;;;;;;7.42;3.80;;;;;;;22.93;52.82;100988.10;1755562;80;21104;-50
2021/09/02 03:57:47;;;;;;;5.03;3.45;;;;;;;22.96;52.83;100985.69;1759914;80;21593;-50
2021/09/02 04:00:15;;;;;;;4.85;3.75;;;;;;;22.98;53.00;100996.58;1749745;80;20990;-49
2021/09/02 04:02:41;;;;;;;4.08;3.70;;;;;;;23.00;52.87;100989.86;1766300;80;21474;-50
2021/09/02 04:05:09;;;;;;;4.97;4.12;;;;;;;23.03;52.61;100990.95;1776687;80;20999;-50
2021/09/02 04:07:36;;;;;;;3.83;3.52;;;;;;;23.01;52.57;100992.87;1771302;80;21517;-50
2021/09/02 04:10:05;;;;;;;5.50;4.10;;;;;;;23.01;52.82;100997.70;1771701;81;21038;-47
2021/09/02 04:12:32;;;;;;;4.80;3.75;;;;;;;23.01;52.68;100999.50;1760906;80;20987;-50
2021/09/02 04:14:59;;;;;;;4.72;4.25;;;;;;;22.98;52.98;100997.91;1768913;80;21474;-47
2021/09/02 04:17:26;;;;;;;6.53;3.60;;;;;;;22.93;53.29;100997.39;1764512;80;21057;-48
2021/09/02 04:19:52;;;;;;;4.62;3.60;;;;;;;22.88;53.40;100999.96;1767836;80;21030;-49
2021/09/02 04:22:18;;;;;;;4.12;3.77;;;;;;;22.88;53.59;101002.15;1765746;80;21034;-48
2021/09/02 04:24:47;;;;;;;3.92;3.60;;;;;;;22.89;53.46;100995.05;1757510;80;21123;-48
2021/09/02 04:27:16;;;;;;;6.95;3.87;;;;;;;22.93;53.36;101000.51;1755392;80;21069;-48
2021/09/02 04:29:43;;;;;;;5.55;4.30;;;;;;;22.97;53.16;101002.00;1756436;80;21096;-48
2021/09/02 04:32:10;;;;;;;4.53;3.60;;;;;;;22.98;53.07;101007.69;1769055;80;21679;-48
2021/09/02 04:34:38;;;;;;;4.28;3.90;;;;;;;22.96;53.17;101009.57;1736553;83;21078;-50
2021/09/02 04:37:05;;;;;;;4.65;4.00;;;;;;;22.95;53.13;101013.20;1711116;83;21046;-48
2021/09/02 04:39:33;;;;;;;4.03;3.62;;;;;;;22.94;53.13;101006.17;1703449;83;21034;-48
2021/09/02 04:42:00;;;;;;;4.33;3.17;;;;;;;22.95;53.15;101010.54;1730372;82;21009;-49
2021/09/02 04:44:27;;;;;;;3.42;3.22;;;;;;;22.96;53.00;101006.91;1690720;83;21501;-49
2021/09/02 04:46:54;;;;;;;5.42;3.40;;;;;;;22.95;52.77;101007.42;1767458;80;21035;-48
2021/09/02 04:49:21;;;;;;;4.70;3.08;;;;;;;22.94;52.79;101010.16;1764602;80;21065;-49
2021/09/02 04:51:47;;;;;;;4.33;2.90;;;;;;;22.95;53.00;101017.17;1756144;80;21478;-49
2021/09/02 04:54:15;;;;;;;4.15;3.40;;;;;;;22.95;52.94;101018.50;1754190;80;21066;-50
2021/09/02 04:56:41;;;;;;;4.42;3.37;;;;;;;22.94;53.00;101020.30;1774819;80;21050;-50
2021/09/02 04:59:09;;;;;;;3.55;3.25;;;;;;;22.96;53.23;101018.86;1766487;80;21057;-50
2021/09/02 05:01:36;;;;;;;4.83;3.17;;;;;;;22.95;53.36;101026.47;1757763;80;21572;-50
2021/09/02 05:04:03;;;;;;;5.75;3.55;;;;;;;22.93;53.25;101026.58;1766980;80;21002;-50
2021/09/02 05:06:30;;;;;;;5.15;3.20;;;;;;;22.93;53.19;101028.38;1763359;80;21082;-49
2021/09/02 05:08:57;;;;;;;3.83;3.52;;;;;;;22.90;53.31;101031.22;1774532;80;21038;-50
2021/09/02 05:11:24;;;;;;;6.42;3.47;;;;;;;22.91;53.32;101031.61;1753386;80;21038;-50
2021/09/02 05:13:50;;;;;;;5.58;3.70;;;;;;;22.90;53.27;101041.84;1767401;80;21515;-50
2021/09/02 05:16:18;;;;;;;4.10;3.80;;;;;;;22.90;53.57;101036.53;1773122;80;21065;-50
2021/09/02 05:18:45;;;;;;;7.00;4.33;;;;;;;22.90;53.79;101039.19;1758080;80;21034;-48
2021/09/02 05:21:12;;;;;;;6.42;4.15;;;;;;;22.89;53.90;101041.48;1769362;80;21498;-48
2021/09/02 05:23:39;;;;;;;4.45;4.05;;;;;;;22.90;53.93;101035.20;1753420;80;21112;-49
2021/09/02 05:26:05;;;;;;;31.48;5.78;;;;;;;22.92;54.04;101031.97;1764025;80;21026;-49
2021/09/02 05:28:32;;;;;;;9.30;5.00;;;;;;;22.94;54.00;101040.67;1771695;80;21039;-49
2021/09/02 05:30:58;;;;;;;5.05;4.53;;;;;;;22.94;54.34;101045.98;1763197;80;21061;-49
2021/09/02 05:33:26;;;;;;;9.08;5.08;;;;;;;22.93;54.64;101040.31;1771829;80;21006;-49
2021/09/02 05:35:52;;;;;;;5.80;4.90;;;;;;;22.91;54.72;101052.38;1754552;80;21340;-49
2021/09/02 05:38:19;;;;;;;8.98;4.92;;;;;;;22.91;54.51;101047.53;1772891;80;21002;-49
2021/09/02 05:40:45;;;;;;;7.72;4.80;;;;;;;22.91;54.54;101053.70;1765861;80;21516;-50
2021/09/02 05:43:12;;;;;;;7.45;4.90;;;;;;;22.90;54.61;101047.14;1780921;80;21003;-51
2021/09/02 05:45:39;;;;;;;7.17;4.72;;;;;;;22.90;54.45;101051.13;1749252;80;21116;-50
2021/09/02 05:48:07;;;;;;;5.60;4.20;;;;;;;22.91;54.56;101048.39;1779208;80;21109;-50
2021/09/02 05:50:33;;;;;;;4.45;3.22;;;;;;;22.92;54.39;101042.58;1771585;79;21007;-50
2021/09/02 05:53:00;;;;;;;4.95;3.72;;;;;;;22.93;54.67;101043.83;1769536;79;20983;-49
2021/09/02 05:55:26;;;;;;;6.28;3.60;;;;;;;22.96;54.65;101049.38;1749328;80;21046;-50
2021/09/02 05:57:55;;;;;;;4.97;3.55;;;;;;;22.99;54.46;101046.53;1772168;80;21042;-50
2021/09/02 06:00:22;;;;;;;6.45;3.50;;;;;;;23.01;54.49;101055.23;1765349;80;21563;-50
2021/09/02 06:02:49;;;;;;;4.17;3.77;;;;;;;23.04;54.20;101061.17;1762322;80;21011;-50
2021/09/02 06:05:15;;;;;;;4.25;3.45;;;;;;;23.08;53.78;101064.49;1761997;80;21023;-50
2021/09/02 06:07:42;;;;;;;4.72;3.40;;;;;;;23.09;53.58;101060.87;1757081;80;21523;-50
2021/09/02 06:10:10;;;;;;;5.28;3.30;;;;;;;23.07;53.54;101070.73;1750877;80;20978;-50
2021/09/02 06:12:38;;;;;;;4.72;3.12;;;;;;;23.05;53.61;101084.59;1754365;80;21079;-49
2021/09/02 06:15:08;;;;;;;3.77;3.12;;;;;;;23.01;53.58;101074.67;1750208;80;21075;-50
2021/09/02 06:17:36;;;;;;;5.03;3.12;;;;;;;22.95;53.58;101071.58;1763754;80;21174;-50
2021/09/02 06:20:06;;;;;;;5.17;3.27;;;;;;;22.91;53.94;101092.64;1757547;80;21549;-50
2021/09/02 06:22:34;;;;;;;5.83;3.35;;;;;;;22.87;54.14;101082.72;1608346;86;21546;-49
2021/09/02 06:25:01;;;;;;;4.08;3.50;;;;;;;22.86;53.72;101082.80;1634711;86;21121;-50
2021/09/02 06:27:28;;;;;;;6.22;3.02;;;;;;;22.84;53.98;101092.67;1658519;86;21036;-50
2021/09/02 06:29:54;;;;;;;5.85;3.52;;;;;;;22.82;53.90;101092.78;1648432;86;21074;-51
2021/09/02 06:32:21;;;;;;;4.83;2.72;;;;;;;22.83;53.63;101100.27;1638922;86;21105;-50
2021/09/02 06:34:48;;;;;;;9.18;5.67;;;;;;;22.82;53.90;101099.88;1652882;85;21062;-50
2021/09/02 06:37:15;;;;;;;3.22;2.77;;;;;;;22.82;53.88;101106.52;1651762;86;21097;-50
2021/09/02 06:39:42;;;;;;;5.05;3.05;;;;;;;22.82;53.79;101107.84;1643382;85;21136;-50
2021/09/02 06:42:10;;;;;;;3.12;2.83;;;;;;;22.84;53.37;101104.61;1657819;85;21542;-50
2021/09/02 06:44:37;;;;;;;4.75;2.90;;;;;;;22.89;53.54;101111.80;1632635;85;21078;-50
2021/09/02 06:47:04;;;;;;;5.25;2.77;;;;;;;22.92;53.13;101116.88;1636754;86;21609;-49
2021/09/02 06:49:31;;;;;;;22.82;3.92;;;;;;;22.95;52.99;101116.70;1645933;86;21017;-50
2021/09/02 06:51:58;;;;;;;4.15;2.17;;;;;;;22.98;53.00;101119.16;1635007;86;21112;-51
2021/09/02 06:54:26;;;;;;;3.83;2.20;;;;;;;22.98;52.67;101114.67;1649050;85;21043;-50
2021/09/02 06:56:54;;;;;;;3.25;2.37;;;;;;;23.03;52.30;101119.68;1638798;86;21600;-50
2021/09/02 06:59:22;;;;;;;6.30;2.30;;;;;;;23.09;52.42;101113.95;1643186;85;22061;-50
2021/09/02 07:01:50;;;;;;;4.95;2.00;;;;;;;23.14;52.39;101109.20;1635460;86;21021;-50
2021/09/02 07:04:17;;;;;;;9.25;2.45;;;;;;;23.15;51.63;101118.84;1633140;87;21050;-50
2021/09/02 07:06:44;;;;;;;3.58;2.42;;;;;;;23.14;51.48;101118.48;1631167;87;21035;-50
2021/09/02 07:09:11;;;;;;;4.37;2.22;;;;;;;23.17;51.98;101116.94;1631810;86;21577;-50
2021/09/02 07:11:39;;;;;;;9.83;2.92;;;;;;;23.20;51.75;101115.42;1635943;86;21137;-50
2021/09/02 07:14:07;;;;;;;10.13;2.17;;;;;;;23.26;51.71;101112.34;1642396;85;21561;-50
2021/09/02 07:16:35;;;;;;;8.65;2.45;;;;;;;23.31;51.51;101107.55;1631305;86;21552;-50
2021/09/02 07:19:02;;;;;;;9.15;2.77;;;;;;;23.37;50.91;101117.77;1684704;80;21042;-50
2021/09/02 07:21:29;;;;;;;4.97;3.20;;;;;;;23.39;49.98;101112.73;1777288;79;21061;-50
2021/09/02 07:23:56;;;;;;;5.95;2.35;;;;;;;23.40;50.73;101115.78;1769002;80;21050;-50
2021/09/02 07:26:23;;;;;;;5.75;2.30;;;;;;;23.45;51.10;101120.78;1752344;80;21514;-50
2021/09/02 07:28:50;;;;;;;3.15;2.55;;;;;;;23.48;50.78;101117.03;1763795;80;21070;-50
2021/09/02 07:31:17;;;;;;;10.15;2.77;;;;;;;23.52;50.57;101131.33;1757765;80;21073;-50
2021/09/02 07:33:43;;;;;;;5.47;2.40;;;;;;;23.52;50.41;101126.02;1769261;80;21046;-50
2021/09/02 07:36:10;;;;;;;7.20;2.60;;;;;;;23.55;49.81;101127.16;1763289;80;21510;-50
2021/09/02 07:38:39;;;;;;;3.58;2.27;;;;;;;23.55;49.57;101119.18;1759962;80;21046;-50
2021/09/02 07:41:05;;;;;;;13.53;2.80;;;;;;;23.55;49.53;101120.51;1767243;80;21007;-48
2021/09/02 07:43:32;;;;;;;4.83;2.50;;;;;;;23.55;49.09;101120.51;1754463;80;21047;-50
2021/09/02 07:46:00;;;;;;;6.42;2.90;;;;;;;23.54;49.11;101113.48;1748722;80;21107;-49
2021/09/02 07:48:27;;;;;;;5.17;2.75;;;;;;;23.55;49.54;101129.81;1738431;80;21542;-49
2021/09/02 07:50:54;;;;;;;3.80;3.15;;;;;;;23.56;49.36;101127.51;1747055;80;21028;-50
2021/09/02 07:53:21;;;;;;;4.70;2.72;;;;;;;23.57;49.22;101134.53;1780217;79;21501;-50
2021/09/02 07:55:48;;;;;;;8.03;3.12;;;;;;;23.58;49.55;101148.17;1780359;80;20991;-49
2021/09/02 07:58:15;;;;;;;13.30;3.30;;;;;;;23.62;50.44;101143.02;1762394;80;21043;-49
2021/09/02 08:00:41;;;;;;;4.25;2.83;;;;;;;23.64;49.70;101130.47;1752382;81;21038;-50
2021/09/02 08:03:08;;;;;;;5.12;2.60;;;;;;;23.69;49.25;101135.47;1741563;80;21502;-50
2021/09/02 08:05:35;;;;;;;5.10;2.98;;;;;;;23.70;48.89;101123.91;1759559;80;21101;-50
2021/09/02 08:08:03;;;;;;;7.67;2.98;;;;;;;23.73;49.65;101131.17;1740392;80;21566;-49
2021/09/02 08:10:30;;;;;;;4.30;3.00;;;;;;;23.77;49.50;101135.31;1769386;80;21128;-50
2021/09/02 08:12:59;;;;;;;9.80;3.42;;;;;;;23.84;49.59;101125.96;1761952;80;21562;-49
2021/09/02 08:15:26;;;;;;;5.28;3.05;;;;;;;23.92;48.80;101124.94;1750048;80;21007;-47
2021/09/02 08:17:53;;;;;;;5.85;3.50;;;;;;;23.99;48.45;101145.26;1752299;80;21305;-50
2021/09/02 08:20:21;;;;;;;4.83;3.27;;;;;;;24.02;47.83;101132.63;1759513;80;21040;-50
2021/09/02 08:22:48;;;;;;;7.42;3.87;;;;;;;24.04;47.41;101134.72;1771526;80;21014;-48
2021/09/02 08:25:14;;;;;;;10.63;4.58;;;;;;;24.03;47.57;101135.67;1749587;80;21010;-49
2021/09/02 08:27:42;;;;;;;6.60;3.52;;;;;;;24.04;47.16;101128.08;1776153;80;21018;-51
2021/09/02 08:30:12;;;;;;;8.20;3.30;;;;;;;24.03;47.11;101126.36;1784547;80;21069;-51
2021/09/02 08:32:46;;;;;;;5.15;3.70;;;;;;;24.05;46.46;101124.44;1779657;80;21140;-49
2021/09/02 08:35:10;;;;;;;9.35;3.90;;;;;;;24.07;46.53;101131.83;1765057;80;21510;-50
2021/09/02 08:37:37;;;;;;;4.30;2.87;;;;;;;24.10;46.99;101128.96;1777327;80;21510;-50
2021/09/02 08:40:06;;;;;;;5.90;3.37;;;;;;;24.11;46.00;101133.30;1761422;80;21085;-49
2021/09/02 08:42:33;;;;;;;6.75;3.77;;;;;;;24.12;45.99;101136.34;1751477;80;21463;-51
2021/09/02 08:44:59;;;;;;;5.67;3.90;;;;;;;24.13;45.50;101134.05;1759761;80;21053;-49
2021/09/02 08:47:26;;;;;;;8.93;3.80;;;;;;;24.17;45.85;101132.86;1763500;80;21017;-50
2021/09/02 08:49:54;;;;;;;10.38;4.75;;;;;;;24.18;45.98;101141.22;1768733;80;21067;-50
2021/09/02 08:52:22;;;;;;;9.73;4.47;;;;;;;24.20;46.72;101140.63;1752248;80;21085;-50
2021/09/02 08:54:50;;;;;;;6.40;3.55;;;;;;;24.22;46.21;101135.20;1743926;80;21508;-50
2021/09/02 08:57:17;;;;;;;4.62;3.58;;;;;;;24.20;45.74;101149.08;1736337;80;20991;-50
2021/09/02 08:59:43;;;;;;;5.37;3.92;;;;;;;24.17;45.71;101148.81;1764324;80;21011;-50
2021/09/02 09:02:26;;;;;;;7.00;3.62;;;;;;;24.16;45.16;101145.80;1774000;80;21466;-49
2021/09/02 09:05:12;;;;;;;5.42;3.65;;;;;;;24.18;44.83;101139.89;1649210;85;21046;-50
2021/09/02 09:07:48;;;;;;;11.88;4.30;;;;;;;24.21;44.80;101133.01;1634981;85;21188;-50
2021/09/02 09:10:23;;;;;;;5.65;3.27;;;;;;;24.27;44.45;101137.53;1642494;86;21127;-50
2021/09/02 09:12:54;;;;;;;6.92;3.47;;;;;;;24.32;44.19;101140.72;1633809;86;21454;-50
2021/09/02 09:15:25;;;;;;;7.30;4.10;;;;;;;24.37;44.02;101142.55;1576643;90;21183;-50
2021/09/02 09:17:55;;;;;;;8.25;3.55;;;;;;;24.41;43.85;101129.39;1552862;91;21102;-49
2021/09/02 09:20:24;;;;;;;7.28;3.85;;;;;;;24.40;44.13;101133.03;1550257;92;21103;-50
2021/09/02 09:22:58;;;;;;;7.78;4.33;;;;;;;24.43;44.16;101131.45;1527570;91;21634;-48
2021/09/02 09:25:26;;;;;;;6.85;4.40;;;;;;;24.45;43.25;101133.05;1552793;91;21089;-48
2021/09/02 09:27:59;;;;;;;11.45;4.20;;;;;;;24.48;44.02;101134.64;1542942;92;21055;-51
2021/09/02 09:30:30;;;;;;;4.20;3.80;;;;;;;24.52;43.51;101134.78;1533976;92;21048;-48
2021/09/02 09:33:03;;;;;;;17.12;4.70;;;;;;;24.56;43.30;101140.25;1475960;96;21121;-49
2021/09/02 09:35:36;;;;;;;8.18;4.28;;;;;;;24.58;43.55;101142.31;1478027;94;21617;-49
2021/09/02 09:38:18;;;;;;;8.08;3.95;;;;;;;24.61;44.43;101138.08;1478386;95;21054;-49
2021/09/02 09:40:52;;;;;;;7.75;4.47;;;;;;;24.64;43.78;101140.53;1477433;95;21142;-48
2021/09/02 09:43:25;;;;;;;4.58;3.98;;;;;;;24.70;43.98;101150.72;1460985;97;21083;-51
2021/09/02 09:45:57;;;;;;;4.90;4.28;;;;;;;24.71;43.76;101143.94;1474945;95;21146;-49
2021/09/02 09:48:35;;;;;;;6.53;3.72;;;;;;;24.75;42.81;101155.27;1461154;97;21117;-49
2021/09/02 09:51:11;;;;;;;8.40;4.10;;;;;;;24.78;42.85;101163.00;1456651;96;21081;-49
2021/09/02 09:53:50;;;;;;;5.03;4.53;;;;;;;24.83;43.24;101166.19;1516146;92;21099;-50
2021/09/02 09:56:23;;;;;;;11.22;4.25;;;;;;;24.87;42.80;101161.00;1462687;97;21089;-48
2021/09/02 09:58:52;;;;;;;4.37;3.70;;;;;;;24.90;43.19;101174.06;1436519;98;21145;-48
2021/09/02 10:01:19;;;;;;;4.50;3.47;;;;;;;24.93;43.02;101176.52;1417075;100;21096;-48
2021/09/02 10:03:51;;;;;;;4.58;3.30;;;;;;;24.96;41.85;101174.94;1459636;97;21120;-49
2021/09/02 10:06:14;;;;;;;8.08;4.22;;;;;;;24.97;41.13;101172.66;1468600;97;21140;-49
2021/09/02 10:08:45;;;;;;;5.40;3.87;;;;;;;25.00;42.16;101181.73;1468886;96;21197;-49
2021/09/02 10:11:14;;;;;;;7.25;4.00;;;;;;;25.03;42.32;101181.52;1490610;94;21135;-48
2021/09/02 10:13:42;;;;;;;4.60;4.10;;;;;;;25.02;42.35;101185.98;1485192;93;21151;-47
2021/09/02 10:16:09;;;;;;;7.40;4.22;;;;;;;25.01;42.26;101190.10;1529440;92;21125;-49
2021/09/02 10:18:44;;;;;;;8.13;4.30;;;;;;;24.98;42.65;101188.98;1531292;91;21609;-50
2021/09/02 10:21:11;;;;;;;9.18;4.62;;;;;;;24.92;42.11;101198.28;1523420;91;21108;-50
2021/09/02 10:23:37;;;;;;;5.28;3.75;;;;;;;24.91;42.47;101185.09;1523429;93;21181;-50
2021/09/02 10:26:04;;;;;;;4.62;3.60;;;;;;;24.90;41.40;101186.05;1531245;93;21644;-48
2021/09/02 10:28:36;;;;;;;6.10;3.52;;;;;;;24.89;41.30;101193.68;1528615;93;21130;-50
2021/09/02 10:31:08;;;;;;;4.90;4.28;;;;;;;24.88;40.62;101192.82;1511292;93;21139;-48
2021/09/02 10:33:44;;;;;;;8.75;3.80;;;;;;;24.90;40.43;101191.38;1484166;95;21154;-49
2021/09/02 10:36:17;;;;;;;7.37;4.12;;;;;;;24.93;40.06;101197.81;1511221;93;21135;-51
2021/09/02 10:38:50;;;;;;;4.72;4.17;;;;;;;24.96;40.70;101198.90;1531032;92;21076;-49
2021/09/02 10:41:41;;;;;;;9.50;4.10;;;;;;;25.01;40.92;101204.74;1486358;94;21114;-50
2021/09/02 10:44:10;;;;;;;5.33;3.10;;;;;;;25.06;41.14;101201.23;1511746;91;21589;-50
2021/09/02 10:46:46;;;;;;;6.25;3.70;;;;;;;25.10;40.27;101198.71;1556628;91;21549;-51
2021/09/02 10:49:35;;;;;;;9.23;3.98;;;;;;;25.14;39.73;101206.87;1547353;91;21673;-50
2021/09/02 10:52:04;;;;;;;5.03;3.40;;;;;;;25.15;40.07;101212.55;1571895;84;21172;-50
2021/09/02 10:54:37;;;;;;;4.28;3.30;;;;;;;25.17;39.32;101215.94;1685081;83;21007;-49
2021/09/02 10:57:09;;;;;;;9.35;4.15;;;;;;;25.18;40.48;101216.33;1697425;82;22170;-50
2021/09/02 10:59:43;;;;;;;;;;;;;;;25.19;40.01;101227.33;1684440;83;21635;-49
2021/09/02 11:02:27;;;;;;;6.12;3.22;;;;;;;25.19;40.10;101218.48;1685337;83;20128;-50
2021/09/02 11:05:05;;;;;;;7.95;3.37;;;;;;;25.17;40.89;101218.61;1682991;83;21134;-50
2021/09/02 11:07:48;;;;;;;9.65;3.33;;;;;;;25.20;39.15;101221.05;1684309;83;21032;-50
2021/09/02 11:10:21;;;;;;;8.78;3.37;;;;;;;25.21;38.99;101224.06;1683447;83;21089;-49
2021/09/02 11:13:00;;;;;;;6.47;3.20;;;;;;;25.23;38.87;101223.47;1694148;83;21048;-50
2021/09/02 11:15:29;;;;;;;8.35;4.03;;;;;;;25.24;39.29;101234.51;1677399;83;21084;-50
2021/09/02 11:18:00;;;;;;;6.78;3.60;;;;;;;25.23;38.81;101239.45;1676954;83;21126;-50
2021/09/02 11:20:28;;;;;;;9.28;3.40;;;;;;;25.18;39.04;101257.61;1711425;82;20983;-50
2021/09/02 11:23:13;;;;;;;7.65;3.85;;;;;;;25.13;39.60;101267.73;1710679;82;21557;-50
2021/09/02 11:25:43;;;;;;;10.32;3.62;;;;;;;25.08;39.88;101248.58;1699807;83;21070;-49
2021/09/02 11:28:10;;;;;;;6.35;3.35;;;;;;;25.06;39.85;101250.50;1705091;82;21073;-49
2021/09/02 11:30:36;;;;;;;5.87;2.83;;;;;;;25.06;39.47;101239.84;1641711;85;21057;-49